Time;durP1;ratioP1;P1;durP2;ratioP2;P2;SDS_P1;SDS_P2;PMS_P1;PMS_P2;Temp;Humidity;BMP_temperature;BMP_pressure;BME280_temperature;BME280_humidity;BME280_pressure;Samples;Min_cycle;Max_cycle;Signal;HPM_P1;HPM_P2
2022/12/01 00:02:24;;;;;;;1.60;1.30;;;7.00;98.20;;;;;;4992931;28;20492;-76
2022/12/01 00:04:51;;;;;;;1.63;1.20;;;7.00;98.20;;;;;;4994607;28;20488;-76
2022/12/01 00:07:18;;;;;;;1.70;1.30;;;7.10;98.20;;;;;;4995013;28;20517;-76
2022/12/01 00:12:30;;;;;;;1.60;1.30;;;7.00;98.20;;;;;;4992374;28;20482;-77
2022/12/01 00:14:59;;;;;;;2.83;2.63;;;7.00;98.20;;;;;;4980576;28;21017;-76
2022/12/01 00:17:27;;;;;;;1.60;1.30;;;7.00;98.20;;;;;;5003120;28;20497;-76
2022/12/01 00:19:54;;;;;;;1.60;1.23;;;7.00;98.20;;;;;;5000033;28;21275;-76
2022/12/01 00:22:21;;;;;;;1.63;1.37;;;7.00;98.20;;;;;;4996429;28;20809;-77
2022/12/01 00:24:51;;;;;;;1.67;1.30;;;7.10;98.20;;;;;;4998291;28;20484;-76
2022/12/01 00:27:17;;;;;;;1.63;1.30;;;7.10;98.20;;;;;;4995248;28;20490;-77
2022/12/01 00:29:46;;;;;;;1.70;1.30;;;7.10;98.20;;;;;;4999101;28;21001;-76
2022/12/01 00:32:13;;;;;;;1.60;1.20;;;7.10;98.20;;;;;;4995481;28;21058;-77
2022/12/01 00:34:40;;;;;;;1.60;1.27;;;7.10;98.20;;;;;;4984720;28;20815;-77
2022/12/01 00:37:07;;;;;;;1.60;1.30;;;7.10;98.20;;;;;;4995859;28;20502;-77
2022/12/01 00:39:34;;;;;;;1.67;1.30;;;7.10;98.20;;;;;;4999516;28;20482;-76
2022/12/01 00:42:04;;;;;;;4.17;1.97;;;7.10;98.20;;;;;;4984613;28;20567;-77
2022/12/01 00:44:31;;;;;;;1.60;1.20;;;7.10;98.20;;;;;;4986357;28;20493;-77
2022/12/01 00:46:58;;;;;;;1.70;1.40;;;7.10;98.20;;;;;;4984211;28;20488;-77
2022/12/01 00:49:24;;;;;;;1.70;1.40;;;7.00;98.20;;;;;;4994978;28;21060;-77
2022/12/01 00:51:51;;;;;;;1.70;1.37;;;7.00;98.20;;;;;;4992684;28;20495;-77
2022/12/01 00:54:18;;;;;;;1.60;1.30;;;7.00;98.20;;;;;;4988330;28;20462;-77
2022/12/01 00:56:45;;;;;;;1.60;1.20;;;7.10;98.20;;;;;;4986436;28;20482;-77
2022/12/01 00:59:13;;;;;;;1.60;1.30;;;7.00;98.20;;;;;;5010125;28;20491;-76
2022/12/01 01:01:40;;;;;;;1.60;1.20;;;7.00;98.20;;;;;;4990454;28;20493;-77
2022/12/01 01:04:07;;;;;;;2.27;2.07;;;7.00;98.20;;;;;;5003953;28;20485;-77
2022/12/01 01:06:35;;;;;;;1.60;1.30;;;7.00;98.20;;;;;;4988885;28;20490;-77
2022/12/01 01:09:04;;;;;;;1.63;1.30;;;7.00;98.20;;;;;;4997770;28;20993;-76
2022/12/01 01:11:31;;;;;;;1.67;1.20;;;7.00;98.20;;;;;;4975013;28;20522;-77
2022/12/01 01:13:59;;;;;;;1.63;1.30;;;7.00;98.20;;;;;;4995148;28;21004;-76
2022/12/01 01:16:28;;;;;;;2.13;1.93;;;6.90;98.20;;;;;;4977864;28;20486;-76
2022/12/01 01:18:57;;;;;;;1.70;1.40;;;6.90;98.20;;;;;;5012956;28;20499;-77
2022/12/01 01:21:24;;;;;;;2.10;1.90;;;6.90;98.20;;;;;;4987010;28;20870;-77
2022/12/01 01:23:54;;;;;;;1.60;1.20;;;6.90;98.20;;;;;;4984910;28;20513;-77
2022/12/01 01:26:25;;;;;;;1.60;1.20;;;6.90;98.20;;;;;;4970771;28;20476;-77
2022/12/01 01:28:53;;;;;;;1.93;1.73;;;6.90;98.20;;;;;;4999075;28;20481;-76
2022/12/01 01:31:23;;;;;;;1.60;1.30;;;6.90;98.20;;;;;;4978786;28;20486;-76
2022/12/01 01:33:54;;;;;;;1.60;1.30;;;6.90;98.20;;;;;;4986932;28;20454;-75
2022/12/01 01:36:23;;;;;;;1.60;1.20;;;6.90;98.20;;;;;;4969953;28;20490;-75
2022/12/01 01:38:52;;;;;;;1.60;1.30;;;6.90;98.20;;;;;;4998056;28;21017;-75
2022/12/01 01:41:20;;;;;;;1.60;1.30;;;6.90;98.20;;;;;;4970319;28;20486;-75
2022/12/01 01:43:48;;;;;;;1.63;1.30;;;6.90;98.20;;;;;;4990384;28;20494;-75
2022/12/01 01:46:17;;;;;;;1.60;1.30;;;6.90;98.20;;;;;;4966196;28;20494;-75
2022/12/01 01:48:49;;;;;;;1.63;1.30;;;6.90;98.20;;;;;;4997791;28;20486;-75
2022/12/01 01:51:24;;;;;;;1.63;1.30;;;6.90;98.20;;;;;;4985443;28;20483;-75
2022/12/01 01:53:54;;;;;;;1.60;1.20;;;6.90;98.20;;;;;;5002617;28;20460;-75
2022/12/01 01:56:22;;;;;;;1.60;1.30;;;6.90;98.20;;;;;;4985507;28;20559;-75
2022/12/01 01:58:51;;;;;;;1.67;1.37;;;6.90;98.20;;;;;;5003332;28;20496;-75
2022/12/01 02:01:18;;;;;;;1.63;1.30;;;6.90;98.20;;;;;;4985452;28;20476;-76
2022/12/01 02:03:45;;;;;;;2.23;2.03;;;6.90;98.20;;;;;;4994600;28;20490;-75
2022/12/01 02:06:12;;;;;;;1.70;1.30;;;6.80;98.20;;;;;;4967857;28;20537;-75
2022/12/01 02:08:41;;;;;;;1.70;1.30;;;6.80;98.20;;;;;;4996843;28;20462;-75
2022/12/01 02:11:47;;;;;;;1.67;1.37;;;6.90;98.20;;;;;;4967376;28;20477;-74
2022/12/01 02:14:31;;;;;;;2.10;1.90;;;6.90;98.20;;;;;;4987684;28;20525;-74
2022/12/01 02:17:08;;;;;;;1.60;1.20;;;6.90;98.20;;;;;;4988965;28;20573;-75
2022/12/01 02:19:58;;;;;;;1.67;1.30;;;6.90;98.20;;;;;;4988882;28;20489;-75
2022/12/01 02:22:37;;;;;;;1.70;1.20;;;6.80;98.20;;;;;;4980117;28;20480;-74
2022/12/01 02:25:19;;;;;;;1.67;1.30;;;6.80;98.20;;;;;;4973790;28;20490;-76
2022/12/01 02:28:07;;;;;;;1.67;1.30;;;6.90;98.20;;;;;;4997973;28;21126;-76
2022/12/01 02:30:41;;;;;;;1.60;1.30;;;6.90;98.20;;;;;;4966071;28;20556;-76
2022/12/01 02:33:16;;;;;;;1.60;1.20;;;6.80;98.20;;;;;;4990937;28;20474;-76
2022/12/01 02:35:49;;;;;;;1.63;1.30;;;6.80;98.20;;;;;;4971653;28;20464;-76
2022/12/01 02:38:26;;;;;;;1.67;1.30;;;6.90;98.20;;;;;;4960642;28;20477;-75
2022/12/01 02:41:00;;;;;;;1.63;1.20;;;6.90;98.20;;;;;;4962364;28;20458;-75
2022/12/01 02:43:31;;;;;;;1.67;1.30;;;6.90;98.20;;;;;;4998082;28;20544;-75
2022/12/01 02:46:06;;;;;;;1.60;1.30;;;6.90;98.20;;;;;;4964279;28;20749;-75
2022/12/01 02:48:35;;;;;;;1.63;1.30;;;6.80;98.20;;;;;;5016383;28;20465;-76
2022/12/01 02:51:08;;;;;;;1.60;1.30;;;6.80;98.20;;;;;;4983281;28;20476;-76
2022/12/01 02:53:35;;;;;;;1.60;1.20;;;6.80;98.20;;;;;;4996717;28;20462;-75
2022/12/01 02:56:07;;;;;;;1.60;1.30;;;6.80;98.20;;;;;;4965656;28;20473;-75
2022/12/01 02:58:34;;;;;;;1.70;1.30;;;6.80;98.20;;;;;;5016835;28;20564;-75
2022/12/01 03:01:22;;;;;;;1.60;1.20;;;6.80;98.20;;;;;;4980622;28;21175;-75
2022/12/01 03:04:02;;;;;;;1.70;1.40;;;6.80;98.20;;;;;;5001457;28;20485;-75
2022/12/01 03:06:40;;;;;;;1.70;1.30;;;6.80;98.20;;;;;;4985858;28;20476;-75
2022/12/01 03:09:18;;;;;;;1.60;1.30;;;6.80;98.20;;;;;;4990117;28;20583;-74
2022/12/01 03:11:55;;;;;;;1.60;1.20;;;6.80;98.20;;;;;;4975733;28;20488;-75
2022/12/01 03:14:34;;;;;;;1.70;1.40;;;6.80;98.20;;;;;;4983493;28;20469;-75
2022/12/01 03:17:08;;;;;;;1.93;1.73;;;6.80;98.20;;;;;;4988340;28;20566;-75
2022/12/01 03:19:42;;;;;;;1.60;1.30;;;6.80;98.20;;;;;;5000365;28;20548;-75
2022/12/01 03:22:13;;;;;;;1.67;1.33;;;6.80;98.20;;;;;;4990653;28;20475;-75
2022/12/01 03:24:43;;;;;;;1.63;1.30;;;6.80;98.20;;;;;;4976856;28;20536;-75
2022/12/01 03:27:12;;;;;;;1.63;1.30;;;6.80;98.20;;;;;;4980919;28;20652;-74
2022/12/01 03:32:14;;;;;;;1.70;1.30;;;6.80;98.20;;;;;;4996490;28;20467;-76
2022/12/01 03:34:45;;;;;;;1.60;1.30;;;6.80;98.20;;;;;;4995543;28;20515;-75
2022/12/01 03:37:19;;;;;;;1.60;1.30;;;6.80;98.20;;;;;;5000156;28;20945;-74
2022/12/01 03:39:48;;;;;;;3.40;3.20;;;6.80;98.20;;;;;;4998017;28;20496;-76
2022/12/01 03:42:22;;;;;;;1.60;1.30;;;6.80;98.20;;;;;;4990163;28;20494;-76
2022/12/01 03:44:54;;;;;;;1.60;1.20;;;6.80;98.20;;;;;;4992926;28;20489;-76
2022/12/01 03:47:24;;;;;;;1.60;1.30;;;6.80;98.20;;;;;;5003399;28;20487;-76
2022/12/01 03:49:53;;;;;;;1.67;1.30;;;6.80;98.20;;;;;;5009570;28;20477;-75
2022/12/01 03:52:29;;;;;;;1.70;1.50;;;6.80;98.20;;;;;;5003818;28;20652;-75
2022/12/01 03:55:07;;;;;;;1.60;1.20;;;6.80;98.20;;;;;;5012940;28;20455;-77
2022/12/01 03:57:43;;;;;;;1.60;1.20;;;6.80;98.20;;;;;;4997071;28;20494;-75
2022/12/01 04:00:11;;;;;;;1.60;1.30;;;6.80;98.20;;;;;;4997999;28;20490;-74
2022/12/01 04:02:41;;;;;;;1.60;1.30;;;6.80;98.20;;;;;;4994528;28;20523;-75
2022/12/01 04:05:09;;;;;;;1.63;1.30;;;6.80;98.20;;;;;;4990018;28;20492;-75
2022/12/01 04:07:36;;;;;;;2.60;2.40;;;6.80;98.20;;;;;;5007427;28;20557;-76
2022/12/01 04:10:04;;;;;;;1.60;1.30;;;6.80;98.20;;;;;;5001411;28;20525;-76
2022/12/01 04:12:31;;;;;;;1.63;1.27;;;6.80;98.20;;;;;;5003855;28;20484;-76
2022/12/01 04:14:59;;;;;;;1.70;1.40;;;6.80;98.20;;;;;;4993875;28;20829;-76
2022/12/01 04:17:26;;;;;;;2.13;1.93;;;6.80;98.20;;;;;;4991579;28;20480;-76
2022/12/01 04:19:54;;;;;;;1.63;1.30;;;6.80;98.20;;;;;;4993296;28;20481;-76
2022/12/01 04:22:21;;;;;;;1.60;1.30;;;6.80;98.20;;;;;;5003407;28;20502;-75
2022/12/01 04:24:48;;;;;;;1.60;1.20;;;6.80;98.20;;;;;;4992827;28;20555;-76
2022/12/01 04:27:15;;;;;;;1.67;1.30;;;6.80;98.20;;;;;;5001831;28;20487;-76
2022/12/01 04:29:42;;;;;;;2.27;1.77;;;6.80;98.20;;;;;;5009769;28;21016;-77
2022/12/01 04:32:09;;;;;;;1.67;1.30;;;6.80;98.20;;;;;;5003086;28;20479;-77
2022/12/01 04:34:36;;;;;;;2.80;2.60;;;6.80;98.20;;;;;;5010139;28;21022;-76
2022/12/01 04:37:07;;;;;;;1.63;1.30;;;6.80;98.20;;;;;;5008210;28;20479;-76
2022/12/01 04:39:34;;;;;;;1.63;1.30;;;6.80;98.20;;;;;;5009472;28;20473;-76
2022/12/01 04:42:01;;;;;;;1.67;1.30;;;6.70;98.20;;;;;;4988731;28;20571;-75
2022/12/01 04:44:28;;;;;;;1.63;1.20;;;6.70;98.20;;;;;;5001634;28;20484;-74
2022/12/01 04:46:55;;;;;;;3.07;2.80;;;6.70;98.20;;;;;;4996061;28;20488;-75
2022/12/01 04:49:22;;;;;;;1.70;1.40;;;6.70;98.20;;;;;;4997138;28;20468;-76
2022/12/01 04:51:49;;;;;;;2.37;2.17;;;6.70;98.20;;;;;;4994570;28;20487;-75
2022/12/01 04:54:18;;;;;;;1.67;1.30;;;6.70;98.20;;;;;;5001710;28;20460;-76
2022/12/01 04:56:46;;;;;;;1.67;1.30;;;6.70;98.20;;;;;;4995226;28;20490;-76
2022/12/01 04:59:12;;;;;;;1.83;1.73;;;6.70;98.20;;;;;;5020181;28;20842;-76
2022/12/01 05:01:39;;;;;;;1.60;1.20;;;6.70;98.20;;;;;;5008409;28;20490;-76
2022/12/01 05:04:06;;;;;;;1.70;1.30;;;6.70;98.20;;;;;;5006321;28;20460;-76
2022/12/01 05:06:33;;;;;;;1.60;1.27;;;6.70;98.20;;;;;;4993843;28;20550;-75
2022/12/01 05:09:01;;;;;;;1.70;1.30;;;6.70;98.20;;;;;;5019906;28;20460;-76
2022/12/01 05:11:30;;;;;;;1.67;1.30;;;6.70;98.20;;;;;;4987951;28;20494;-76
2022/12/01 05:13:57;;;;;;;1.63;1.23;;;6.70;98.20;;;;;;5001911;28;20472;-76
2022/12/01 05:16:27;;;;;;;1.60;1.30;;;6.70;98.20;;;;;;4990846;28;20479;-75
2022/12/01 05:21:38;;;;;;;1.70;1.40;;;6.70;98.20;;;;;;5002545;28;20515;-76
2022/12/01 05:24:05;;;;;;;1.70;1.30;;;6.70;98.20;;;;;;5000339;28;20471;-75
2022/12/01 05:26:33;;;;;;;1.60;1.30;;;6.70;98.20;;;;;;4990967;28;20486;-75
2022/12/01 05:29:00;;;;;;;1.60;1.30;;;6.70;98.20;;;;;;5020809;28;20460;-75
2022/12/01 05:31:27;;;;;;;1.70;1.30;;;6.70;98.20;;;;;;4993005;28;20478;-75
2022/12/01 05:33:54;;;;;;;1.60;1.20;;;6.70;98.20;;;;;;5010085;28;20465;-75
2022/12/01 05:36:21;;;;;;;1.60;1.20;;;6.70;98.20;;;;;;5000049;28;20676;-76
2022/12/01 05:38:47;;;;;;;1.60;1.30;;;6.70;98.20;;;;;;5007384;28;20468;-76
2022/12/01 05:41:14;;;;;;;1.60;1.23;;;6.70;98.20;;;;;;4986424;28;20495;-76
2022/12/01 05:43:43;;;;;;;1.60;1.27;;;6.60;98.20;;;;;;5004116;28;20481;-76
2022/12/01 05:46:10;;;;;;;1.63;1.30;;;6.60;98.20;;;;;;4983783;28;20484;-76
2022/12/01 05:48:36;;;;;;;1.60;1.30;;;6.60;98.20;;;;;;5004294;28;20966;-75
2022/12/01 05:51:08;;;;;;;1.67;1.40;;;6.60;98.20;;;;;;4983732;28;20481;-75
2022/12/01 05:53:35;;;;;;;4.37;3.97;;;6.60;98.20;;;;;;5015761;28;20460;-75
2022/12/01 05:56:02;;;;;;;1.60;1.30;;;6.60;98.20;;;;;;4987906;28;20463;-75
2022/12/01 05:58:29;;;;;;;1.60;1.30;;;6.60;98.20;;;;;;5007746;28;20507;-78
2022/12/01 06:00:57;;;;;;;1.70;1.30;;;6.60;98.20;;;;;;4978428;28;20492;-76
2022/12/01 06:03:24;;;;;;;1.60;1.30;;;6.60;98.20;;;;;;5006993;28;20496;-75
2022/12/01 06:05:51;;;;;;;1.60;1.30;;;6.60;98.20;;;;;;4979259;28;20864;-76
2022/12/01 06:08:18;;;;;;;2.13;1.93;;;6.60;98.20;;;;;;5001937;28;20461;-76
2022/12/01 06:10:45;;;;;;;1.63;1.30;;;6.60;98.20;;;;;;4989453;28;20489;-75
2022/12/01 06:13:12;;;;;;;2.80;2.43;;;6.60;98.20;;;;;;4984731;28;20484;-76
2022/12/01 06:15:39;;;;;;;1.60;1.30;;;6.60;98.20;;;;;;4990697;28;20476;-76
2022/12/01 06:18:07;;;;;;;1.60;1.20;;;6.60;98.20;;;;;;4993789;28;20484;-76
2022/12/01 06:20:34;;;;;;;1.70;1.40;;;6.60;98.20;;;;;;4987996;28;21017;-76
2022/12/01 06:23:01;;;;;;;1.93;1.70;;;6.60;98.20;;;;;;4991800;28;20540;-75
2022/12/01 06:25:28;;;;;;;1.63;1.30;;;6.60;98.20;;;;;;4985827;28;21076;-75
2022/12/01 06:27:57;;;;;;;1.90;1.57;;;6.60;98.20;;;;;;4976733;28;20999;-76
2022/12/01 06:30:23;;;;;;;1.60;1.30;;;6.60;98.20;;;;;;4986853;28;20555;-75
2022/12/01 06:32:50;;;;;;;2.53;2.33;;;6.60;98.20;;;;;;4983334;28;20483;-75
2022/12/01 06:35:21;;;;;;;3.20;3.00;;;6.60;98.20;;;;;;4986037;28;20495;-75
2022/12/01 06:37:48;;;;;;;1.67;1.30;;;6.60;98.20;;;;;;4978601;28;20477;-77
2022/12/01 06:40:15;;;;;;;1.60;1.20;;;6.60;98.20;;;;;;4986612;28;20480;-75
2022/12/01 06:42:42;;;;;;;1.63;1.30;;;6.60;98.20;;;;;;4982975;28;21017;-76
2022/12/01 06:45:10;;;;;;;1.67;1.30;;;6.60;98.20;;;;;;4988931;28;20558;-75
2022/12/01 06:47:37;;;;;;;1.63;1.37;;;6.60;98.20;;;;;;4982886;28;20476;-75
2022/12/01 06:50:07;;;;;;;1.93;1.73;;;6.60;98.20;;;;;;4983301;28;20491;-75
2022/12/01 06:52:36;;;;;;;1.60;1.27;;;6.60;98.20;;;;;;4995915;28;20483;-74
2022/12/01 06:55:03;;;;;;;1.60;1.20;;;6.60;98.20;;;;;;5000358;28;20456;-76
2022/12/01 06:57:31;;;;;;;1.60;1.20;;;6.60;98.20;;;;;;4985396;28;20503;-76
2022/12/01 06:59:57;;;;;;;1.70;1.30;;;6.60;98.20;;;;;;4989913;28;20597;-77
2022/12/01 07:02:24;;;;;;;1.70;1.30;;;6.70;98.20;;;;;;4992437;28;21019;-74
2022/12/01 07:04:51;;;;;;;1.70;1.40;;;6.60;98.20;;;;;;4998893;28;20485;-77
2022/12/01 07:07:18;;;;;;;1.60;1.30;;;6.70;98.20;;;;;;4979462;28;20628;-76
2022/12/01 07:09:47;;;;;;;1.60;1.30;;;6.70;98.20;;;;;;4991439;28;20495;-77
2022/12/01 07:12:13;;;;;;;1.87;1.67;;;6.70;98.20;;;;;;4994851;28;20576;-77
2022/12/01 07:14:41;;;;;;;1.60;1.30;;;6.70;98.20;;;;;;4997223;28;20552;-76
2022/12/01 07:17:08;;;;;;;2.00;1.80;;;6.70;98.20;;;;;;4991579;28;20492;-76
2022/12/01 07:19:35;;;;;;;1.80;1.50;;;6.70;98.20;;;;;;4993428;28;20500;-76
2022/12/01 07:22:02;;;;;;;4.43;4.13;;;6.70;98.20;;;;;;4993545;28;20487;-76
2022/12/01 07:24:30;;;;;;;2.17;1.97;;;6.70;98.20;;;;;;4997353;28;20473;-75
2022/12/01 07:26:58;;;;;;;1.60;1.20;;;6.70;98.20;;;;;;4988478;28;20495;-75
2022/12/01 07:29:24;;;;;;;1.60;1.30;;;6.70;98.20;;;;;;5011402;28;20482;-79
2022/12/01 07:31:51;;;;;;;1.70;1.57;;;6.70;98.20;;;;;;5008269;28;20483;-78
2022/12/01 07:34:18;;;;;;;2.13;1.93;;;6.70;98.20;;;;;;5011326;28;20475;-75
2022/12/01 07:36:45;;;;;;;1.60;1.20;;;6.70;98.20;;;;;;4993651;28;21007;-76
2022/12/01 07:39:12;;;;;;;1.60;1.30;;;6.70;98.20;;;;;;5004756;28;20469;-76
2022/12/01 07:41:39;;;;;;;1.60;1.30;;;6.70;98.20;;;;;;4988033;28;20498;-77
2022/12/01 07:44:07;;;;;;;1.63;1.30;;;6.70;98.20;;;;;;5007587;28;20553;-77
2022/12/01 07:46:34;;;;;;;1.60;1.30;;;6.70;98.20;;;;;;4994639;28;20580;-77
2022/12/01 07:49:00;;;;;;;1.60;1.30;;;6.60;98.20;;;;;;5023537;28;20460;-76
2022/12/01 07:51:30;;;;;;;1.60;1.30;;;6.60;98.20;;;;;;5002746;28;20792;-76
2022/12/01 07:54:05;;;;;;;1.60;1.30;;;6.70;98.20;;;;;;5003813;28;20558;-77
2022/12/01 07:56:36;;;;;;;1.60;1.27;;;6.70;98.20;;;;;;5002344;28;20588;-76
2022/12/01 07:59:03;;;;;;;1.63;1.30;;;6.70;98.20;;;;;;5000670;28;20453;-76
2022/12/01 08:01:31;;;;;;;1.63;1.30;;;6.70;98.20;;;;;;4985842;28;20484;-77
2022/12/01 08:03:59;;;;;;;1.60;1.30;;;6.70;98.20;;;;;;5000164;28;20486;-76
2022/12/01 08:06:26;;;;;;;1.60;1.20;;;6.70;98.20;;;;;;4989826;28;20513;-76
2022/12/01 08:08:53;;;;;;;1.90;1.70;;;6.70;98.20;;;;;;5002498;28;20541;-76
2022/12/01 08:11:22;;;;;;;1.70;1.40;;;6.70;98.20;;;;;;4985325;28;20490;-77
2022/12/01 08:13:50;;;;;;;1.60;1.30;;;6.70;98.20;;;;;;5001940;28;20472;-75
2022/12/01 08:16:20;;;;;;;1.70;1.50;;;6.70;98.20;;;;;;4986509;28;20561;-77
2022/12/01 08:18:49;;;;;;;1.60;1.20;;;6.80;98.20;;;;;;5020453;28;20743;-76
2022/12/01 08:21:17;;;;;;;1.70;1.57;;;6.80;98.20;;;;;;4999367;28;20488;-76
2022/12/01 08:23:45;;;;;;;1.60;1.20;;;6.80;98.20;;;;;;5001020;28;20887;-75
2022/12/01 08:26:14;;;;;;;1.70;1.40;;;6.70;98.20;;;;;;4983831;28;20479;-76
2022/12/01 08:28:42;;;;;;;1.70;1.50;;;6.70;98.20;;;;;;5021267;28;20468;-77
2022/12/01 08:31:10;;;;;;;1.60;1.30;;;6.70;98.20;;;;;;5003246;28;20490;-77
2022/12/01 08:33:38;;;;;;;1.60;1.30;;;6.70;98.20;;;;;;5025012;28;20467;-76
2022/12/01 08:36:07;;;;;;;1.67;1.30;;;6.70;98.20;;;;;;5001661;28;20462;-77
2022/12/01 08:38:34;;;;;;;3.00;2.80;;;6.70;98.20;;;;;;5006055;28;20464;-76
2022/12/01 08:41:01;;;;;;;1.70;1.30;;;6.70;98.20;;;;;;4984469;28;20502;-76
2022/12/01 08:43:29;;;;;;;1.63;1.20;;;6.80;98.20;;;;;;5004980;28;20456;-77
2022/12/01 08:45:58;;;;;;;1.60;1.20;;;6.80;98.20;;;;;;4983747;28;20986;-76
2022/12/01 08:48:28;;;;;;;1.93;1.73;;;6.80;98.20;;;;;;5015780;28;20469;-76
2022/12/01 08:51:03;;;;;;;1.60;1.30;;;6.80;98.20;;;;;;4983421;28;20981;-77
2022/12/01 08:53:32;;;;;;;2.40;2.20;;;6.90;98.20;;;;;;5016962;28;20884;-76
2022/12/01 08:56:02;;;;;;;1.63;1.30;;;6.90;98.20;;;;;;4989932;28;20484;-77
2022/12/01 08:58:29;;;;;;;1.67;1.27;;;6.90;98.20;;;;;;5026329;28;20471;-76
2022/12/01 09:01:02;;;;;;;1.60;1.20;;;6.90;98.20;;;;;;5003383;28;21034;-77
2022/12/01 09:03:29;;;;;;;1.70;1.30;;;6.80;98.20;;;;;;5005660;28;20465;-77
2022/12/01 09:06:02;;;;;;;1.70;1.30;;;6.80;98.20;;;;;;4984602;28;20483;-78
2022/12/01 09:08:32;;;;;;;1.70;1.40;;;6.80;98.20;;;;;;5026111;28;20472;-77
2022/12/01 09:11:03;;;;;;;1.60;1.20;;;6.80;98.20;;;;;;4986413;28;20480;-77
2022/12/01 09:13:30;;;;;;;1.80;1.60;;;6.80;98.20;;;;;;5006527;28;20475;-77
2022/12/01 09:15:59;;;;;;;2.07;1.87;;;6.80;98.20;;;;;;4984755;28;20460;-76
2022/12/01 09:18:26;;;;;;;1.67;1.27;;;6.80;98.20;;;;;;5027482;28;20812;-76
2022/12/01 09:20:53;;;;;;;1.67;1.30;;;6.80;98.20;;;;;;4995505;28;20579;-76
2022/12/01 09:23:21;;;;;;;1.63;1.20;;;6.80;98.20;;;;;;5012416;28;20497;-80
2022/12/01 09:25:48;;;;;;;4.13;2.43;;;6.80;98.20;;;;;;4982611;28;20874;-74
2022/12/01 09:28:17;;;;;;;1.70;1.30;;;6.80;98.20;;;;;;4996941;28;20883;-74
2022/12/01 09:30:46;;;;;;;1.70;1.43;;;6.80;98.20;;;;;;4990466;28;20526;-74
2022/12/01 09:33:13;;;;;;;1.60;1.30;;;6.80;98.20;;;;;;4990102;28;21003;-74
2022/12/01 09:35:40;;;;;;;1.70;1.30;;;6.80;98.20;;;;;;4990010;28;20464;-74
2022/12/01 09:38:09;;;;;;;1.67;1.40;;;6.90;98.20;;;;;;4982390;28;20557;-74
2022/12/01 09:40:39;;;;;;;1.67;1.30;;;6.90;98.20;;;;;;4989817;28;20480;-75
2022/12/01 09:43:20;;;;;;;1.70;1.50;;;6.80;98.20;;;;;;4986723;28;20551;-74
2022/12/01 09:45:52;;;;;;;1.67;1.30;;;6.90;98.20;;;;;;4986304;28;20982;-75
2022/12/01 09:48:27;;;;;;;1.70;1.40;;;6.90;98.20;;;;;;4995818;28;20485;-75
2022/12/01 09:50:54;;;;;;;1.60;1.20;;;6.90;98.20;;;;;;4981262;28;20495;-75
2022/12/01 09:53:25;;;;;;;1.60;1.20;;;6.90;98.20;;;;;;5002479;28;20465;-74
2022/12/01 09:55:52;;;;;;;1.60;1.20;;;7.00;98.20;;;;;;4979512;28;20453;-75
2022/12/01 09:58:24;;;;;;;1.60;1.20;;;7.00;98.20;;;;;;4986930;28;20555;-75
2022/12/01 10:00:54;;;;;;;1.67;1.30;;;7.10;98.20;;;;;;4979666;28;20532;-74
2022/12/01 10:03:31;;;;;;;1.80;1.57;;;7.10;98.20;;;;;;4991094;28;20465;-74
2022/12/01 10:06:02;;;;;;;1.70;1.30;;;7.10;98.20;;;;;;4981270;28;20488;-73
2022/12/01 10:08:33;;;;;;;1.77;1.50;;;7.10;98.20;;;;;;5002893;28;20564;-74
2022/12/01 10:11:06;;;;;;;1.70;1.20;;;7.10;98.20;;;;;;4980656;28;20520;-74
2022/12/01 10:13:33;;;;;;;1.70;1.30;;;7.10;98.20;;;;;;4999024;28;20476;-75
2022/12/01 10:16:09;;;;;;;1.60;1.30;;;7.10;98.20;;;;;;4981103;28;20461;-74
2022/12/01 10:18:51;;;;;;;1.70;1.33;;;7.10;98.20;;;;;;5000120;28;20475;-74
2022/12/01 10:21:34;;;;;;;1.60;1.30;;;7.10;98.20;;;;;;4983234;28;20858;-74
2022/12/01 10:24:21;;;;;;;1.70;1.37;;;7.20;98.20;;;;;;4998859;28;20981;-73
2022/12/01 10:26:55;;;;;;;1.60;1.20;;;7.10;98.20;;;;;;4983955;28;20484;-74
2022/12/01 10:29:32;;;;;;;1.60;1.20;;;7.10;98.20;;;;;;4987371;28;20465;-74
2022/12/01 10:32:05;;;;;;;1.60;1.27;;;7.10;98.20;;;;;;4981643;28;20941;-74
2022/12/01 10:34:34;;;;;;;1.60;1.30;;;7.10;98.20;;;;;;4989251;28;20471;-74
2022/12/01 10:37:01;;;;;;;1.60;1.20;;;7.10;98.20;;;;;;4986395;28;20487;-74
2022/12/01 10:39:33;;;;;;;2.10;1.63;;;7.20;98.20;;;;;;4993523;28;20903;-74
2022/12/01 10:42:05;;;;;;;1.70;1.40;;;7.20;98.20;;;;;;4985224;28;20879;-75
2022/12/01 10:44:34;;;;;;;1.63;1.30;;;7.20;98.20;;;;;;4987065;28;20461;-74
2022/12/01 10:47:03;;;;;;;2.47;2.27;;;7.20;98.20;;;;;;4987662;28;20492;-74
2022/12/01 10:49:39;;;;;;;1.70;1.30;;;7.30;98.20;;;;;;4992252;28;20480;-74
2022/12/01 10:52:06;;;;;;;1.60;1.20;;;7.30;98.20;;;;;;4987051;28;20498;-74
2022/12/01 10:54:38;;;;;;;1.70;1.30;;;7.30;98.20;;;;;;4994248;28;20465;-74
2022/12/01 10:57:06;;;;;;;1.67;1.20;;;7.30;98.20;;;;;;4990345;28;20511;-73
2022/12/01 10:59:37;;;;;;;1.63;1.20;;;7.30;98.20;;;;;;4990420;28;20465;-75
2022/12/01 11:02:15;;;;;;;1.67;1.30;;;7.30;98.20;;;;;;4981630;28;20469;-74
2022/12/01 11:04:46;;;;;;;1.63;1.20;;;7.30;98.20;;;;;;4996279;28;20464;-74
2022/12/01 11:07:19;;;;;;;1.60;1.20;;;7.30;98.20;;;;;;4988918;28;21090;-74
2022/12/01 11:09:48;;;;;;;1.63;1.20;;;7.30;98.20;;;;;;4990368;28;20495;-74
2022/12/01 11:12:19;;;;;;;2.00;1.77;;;7.20;98.20;;;;;;4983260;28;20484;-76
2022/12/01 11:14:49;;;;;;;1.63;1.30;;;7.20;98.20;;;;;;4991943;28;20461;-74
2022/12/01 11:17:28;;;;;;;1.70;1.40;;;7.20;98.20;;;;;;4979467;28;20917;-74
2022/12/01 11:19:55;;;;;;;1.70;1.40;;;7.20;98.20;;;;;;4989740;28;20492;-74
2022/12/01 11:22:25;;;;;;;1.63;1.30;;;7.20;98.20;;;;;;4983353;28;20760;-74
2022/12/01 11:25:01;;;;;;;1.60;1.20;;;7.10;98.20;;;;;;4988120;28;20469;-74
2022/12/01 11:27:31;;;;;;;1.60;1.20;;;7.10;98.20;;;;;;4985977;28;20885;-74
2022/12/01 11:30:01;;;;;;;1.60;1.23;;;7.10;98.20;;;;;;4994510;28;20495;-74
2022/12/01 11:32:32;;;;;;;1.60;1.20;;;7.10;98.20;;;;;;4980610;28;20476;-75
2022/12/01 11:35:01;;;;;;;1.60;1.27;;;7.10;98.20;;;;;;4987373;28;20475;-75
2022/12/01 11:37:32;;;;;;;1.60;1.20;;;7.10;98.20;;;;;;4990762;28;20487;-76
2022/12/01 11:40:08;;;;;;;2.07;1.87;;;7.10;98.20;;;;;;4987487;28;20527;-75
2022/12/01 11:42:36;;;;;;;1.70;1.30;;;7.10;98.20;;;;;;4981635;28;20575;-75
2022/12/01 11:45:08;;;;;;;1.70;1.30;;;7.10;98.20;;;;;;4987735;28;20891;-76
2022/12/01 11:48:04;;;;;;;1.93;1.73;;;7.10;98.20;;;;;;4991493;28;20484;-77
2022/12/01 11:50:33;;;;;;;1.60;1.30;;;7.10;98.20;;;;;;4993105;28;20488;-76
2022/12/01 11:53:00;;;;;;;1.70;1.30;;;7.10;98.20;;;;;;4974876;28;20489;-76
2022/12/01 11:55:29;;;;;;;1.63;1.20;;;7.10;98.20;;;;;;4993992;28;20456;-76
2022/12/01 11:57:59;;;;;;;4.23;3.73;;;7.10;98.20;;;;;;4978954;28;20481;-75
2022/12/01 12:00:29;;;;;;;1.60;1.20;;;7.10;98.20;;;;;;4985097;28;20477;-75
2022/12/01 12:03:14;;;;;;;1.60;1.20;;;7.10;98.20;;;;;;4995182;28;20503;-76
2022/12/01 12:05:58;;;;;;;1.60;1.30;;;7.10;98.20;;;;;;4991890;28;20498;-75
2022/12/01 12:08:36;;;;;;;1.80;1.57;;;7.10;98.20;;;;;;4983679;28;20563;-75
2022/12/01 12:11:14;;;;;;;1.63;1.20;;;7.20;98.20;;;;;;4983707;28;20488;-75
2022/12/01 12:14:16;;;;;;;1.60;1.20;;;7.20;98.20;;;;;;4993086;28;20472;-76
2022/12/01 12:16:59;;;;;;;1.63;1.30;;;7.30;98.20;;;;;;4986040;28;20566;-75
2022/12/01 12:19:47;;;;;;;2.90;2.70;;;7.30;98.20;;;;;;4996977;28;20465;-75
2022/12/01 12:22:26;;;;;;;1.70;1.57;;;7.40;98.20;;;;;;4985797;28;20480;-74
2022/12/01 12:25:05;;;;;;;1.93;1.73;;;7.40;98.20;;;;;;4989869;28;20476;-75
2022/12/01 12:27:43;;;;;;;1.67;1.27;;;7.50;98.20;;;;;;4984255;28;20590;-77
2022/12/01 12:30:21;;;;;;;3.50;3.20;;;7.50;98.20;;;;;;4997572;28;20492;-76
2022/12/01 12:33:12;;;;;;;1.70;1.33;;;7.60;98.20;;;;;;4991142;28;20476;-77
2022/12/01 12:35:49;;;;;;;1.60;1.20;;;7.60;98.20;;;;;;4987565;28;20479;-77
2022/12/01 12:38:34;;;;;;;1.70;1.37;;;7.60;98.20;;;;;;4985730;28;20468;-76
2022/12/01 12:41:17;;;;;;;1.60;1.30;;;7.60;98.20;;;;;;4983274;28;20849;-76
2022/12/01 12:43:53;;;;;;;1.60;1.20;;;7.60;98.20;;;;;;4997604;28;20464;-77
2022/12/01 12:46:27;;;;;;;1.70;1.33;;;7.60;98.20;;;;;;4987311;28;20526;-76
2022/12/01 12:49:13;;;;;;;1.70;1.40;;;7.60;98.20;;;;;;4991784;28;20855;-76
2022/12/01 12:51:46;;;;;;;1.67;1.30;;;7.50;98.20;;;;;;4981877;28;20813;-76
2022/12/01 12:54:20;;;;;;;1.70;1.40;;;7.60;98.20;;;;;;4994988;28;20460;-76
2022/12/01 12:56:50;;;;;;;1.60;1.20;;;7.50;98.20;;;;;;4990000;28;20486;-76
2022/12/01 12:59:21;;;;;;;1.60;1.20;;;7.40;98.20;;;;;;4996733;28;20472;-76
2022/12/01 13:01:59;;;;;;;1.60;1.20;;;7.40;98.20;;;;;;4986906;28;20480;-77
2022/12/01 13:04:35;;;;;;;1.63;1.20;;;7.40;98.20;;;;;;4995976;28;20779;-76
2022/12/01 13:07:07;;;;;;;1.60;1.20;;;7.30;98.20;;;;;;4987143;28;20480;-77
2022/12/01 13:09:39;;;;;;;1.70;1.37;;;7.30;98.20;;;;;;4993775;28;21000;-75
2022/12/01 13:12:14;;;;;;;1.70;1.20;;;7.30;98.20;;;;;;4984287;28;20476;-75
2022/12/01 13:14:46;;;;;;;1.67;1.27;;;7.20;98.20;;;;;;4986904;28;20474;-75
2022/12/01 13:17:20;;;;;;;1.87;1.67;;;7.30;98.20;;;;;;4979261;28;20883;-75
2022/12/01 13:19:47;;;;;;;1.60;1.20;;;7.30;98.20;;;;;;4989819;28;20567;-74
2022/12/01 13:22:17;;;;;;;1.60;1.20;;;7.20;98.20;;;;;;4983447;28;20481;-75
2022/12/01 13:24:44;;;;;;;1.70;1.40;;;7.30;98.20;;;;;;4989601;28;20469;-74